sensor_id;sensor_type;location;lat;lon;timestamp;P1;durP1;ratioP1;P2;durP2;ratioP2
57969;SDS011;43777;42.656;23.264;2022-11-20T00:00:42;2.80;;;1.50;;
57969;SDS011;43777;42.656;23.264;2022-11-20T00:03:08;2.88;;;1.48;;
57969;SDS011;43777;42.656;23.264;2022-11-20T00:05:34;2.92;;;1.35;;
57969;SDS011;43777;42.656;23.264;2022-11-20T00:08:00;2.65;;;1.05;;
57969;SDS011;43777;42.656;23.264;2022-11-20T00:10:26;3.03;;;1.30;;
57969;SDS011;43777;42.656;23.264;2022-11-20T00:12:52;4.38;;;1.55;;
57969;SDS011;43777;42.656;23.264;2022-11-20T00:15:18;2.45;;;1.45;;
57969;SDS011;43777;42.656;23.264;2022-11-20T00:17:44;3.65;;;1.80;;
57969;SDS011;43777;42.656;23.264;2022-11-20T00:20:11;5.07;;;1.55;;
57969;SDS011;43777;42.656;23.264;2022-11-20T00:22:38;3.40;;;1.75;;
57969;SDS011;43777;42.656;23.264;2022-11-20T00:25:04;2.35;;;1.23;;
57969;SDS011;43777;42.656;23.264;2022-11-20T00:27:30;4.95;;;1.88;;
57969;SDS011;43777;42.656;23.264;2022-11-20T00:29:56;3.65;;;1.50;;
57969;SDS011;43777;42.656;23.264;2022-11-20T00:32:22;4.13;;;1.35;;
57969;SDS011;43777;42.656;23.264;2022-11-20T00:34:48;2.22;;;1.20;;
57969;SDS011;43777;42.656;23.264;2022-11-20T00:37:14;2.65;;;1.45;;
57969;SDS011;43777;42.656;23.264;2022-11-20T00:39:40;2.88;;;1.52;;
57969;SDS011;43777;42.656;23.264;2022-11-20T00:42:06;4.95;;;1.58;;
57969;SDS011;43777;42.656;23.264;2022-11-20T00:44:32;2.45;;;1.50;;
57969;SDS011;43777;42.656;23.264;2022-11-20T00:46:58;2.85;;;1.27;;
57969;SDS011;43777;42.656;23.264;2022-11-20T00:49:24;3.80;;;1.45;;
57969;SDS011;43777;42.656;23.264;2022-11-20T00:51:50;2.60;;;1.42;;
57969;SDS011;43777;42.656;23.264;2022-11-20T00:54:16;3.70;;;1.33;;
57969;SDS011;43777;42.656;23.264;2022-11-20T00:56:42;4.65;;;1.40;;
57969;SDS011;43777;42.656;23.264;2022-11-20T00:59:08;3.13;;;1.40;;
57969;SDS011;43777;42.656;23.264;2022-11-20T01:01:36;3.35;;;1.20;;
57969;SDS011;43777;42.656;23.264;2022-11-20T01:04:02;4.95;;;1.83;;
57969;SDS011;43777;42.656;23.264;2022-11-20T01:06:32;3.80;;;1.70;;
57969;SDS011;43777;42.656;23.264;2022-11-20T01:08:59;4.50;;;1.75;;
57969;SDS011;43777;42.656;23.264;2022-11-20T01:11:29;5.13;;;1.23;;
57969;SDS011;43777;42.656;23.264;2022-11-20T01:13:57;3.38;;;1.52;;
57969;SDS011;43777;42.656;23.264;2022-11-20T01:16:30;4.30;;;1.83;;
57969;SDS011;43777;42.656;23.264;2022-11-20T01:18:58;3.42;;;1.55;;
57969;SDS011;43777;42.656;23.264;2022-11-20T01:21:43;3.08;;;1.30;;
57969;SDS011;43777;42.656;23.264;2022-11-20T01:24:13;3.95;;;1.80;;
57969;SDS011;43777;42.656;23.264;2022-11-20T01:26:41;3.80;;;1.40;;
57969;SDS011;43777;42.656;23.264;2022-11-20T01:29:08;2.05;;;1.33;;
57969;SDS011;43777;42.656;23.264;2022-11-20T01:31:36;2.67;;;1.05;;
57969;SDS011;43777;42.656;23.264;2022-11-20T01:34:06;2.92;;;1.33;;
57969;SDS011;43777;42.656;23.264;2022-11-20T01:36:33;2.47;;;1.30;;
57969;SDS011;43777;42.656;23.264;2022-11-20T01:39:02;3.60;;;1.30;;
57969;SDS011;43777;42.656;23.264;2022-11-20T01:41:29;3.05;;;1.13;;
57969;SDS011;43777;42.656;23.264;2022-11-20T01:44:15;3.67;;;1.20;;
57969;SDS011;43777;42.656;23.264;2022-11-20T01:47:01;4.32;;;1.17;;
57969;SDS011;43777;42.656;23.264;2022-11-20T01:49:37;4.82;;;1.50;;
57969;SDS011;43777;42.656;23.264;2022-11-20T01:52:05;2.20;;;1.13;;
57969;SDS011;43777;42.656;23.264;2022-11-20T01:54:38;3.55;;;1.38;;
57969;SDS011;43777;42.656;23.264;2022-11-20T01:57:05;2.55;;;1.20;;
57969;SDS011;43777;42.656;23.264;2022-11-20T01:59:32;3.42;;;1.50;;
57969;SDS011;43777;42.656;23.264;2022-11-20T02:01:59;2.78;;;1.45;;
57969;SDS011;43777;42.656;23.264;2022-11-20T02:04:25;5.68;;;1.20;;
57969;SDS011;43777;42.656;23.264;2022-11-20T02:06:59;2.03;;;1.10;;
57969;SDS011;43777;42.656;23.264;2022-11-20T02:09:26;3.25;;;1.10;;
57969;SDS011;43777;42.656;23.264;2022-11-20T02:11:52;3.63;;;1.60;;
57969;SDS011;43777;42.656;23.264;2022-11-20T02:14:19;5.22;;;1.50;;
57969;SDS011;43777;42.656;23.264;2022-11-20T02:16:46;1.88;;;1.10;;
57969;SDS011;43777;42.656;23.264;2022-11-20T02:19:16;2.97;;;1.38;;
57969;SDS011;43777;42.656;23.264;2022-11-20T02:21:56;4.78;;;1.63;;
57969;SDS011;43777;42.656;23.264;2022-11-20T02:24:25;2.10;;;1.20;;
57969;SDS011;43777;42.656;23.264;2022-11-20T02:26:52;3.78;;;1.45;;
57969;SDS011;43777;42.656;23.264;2022-11-20T02:29:23;3.50;;;1.58;;
57969;SDS011;43777;42.656;23.264;2022-11-20T02:31:50;4.88;;;1.40;;
57969;SDS011;43777;42.656;23.264;2022-11-20T02:34:17;3.95;;;1.55;;
57969;SDS011;43777;42.656;23.264;2022-11-20T02:36:43;2.30;;;1.25;;
57969;SDS011;43777;42.656;23.264;2022-11-20T02:39:10;3.65;;;1.48;;
57969;SDS011;43777;42.656;23.264;2022-11-20T02:41:37;2.95;;;1.42;;
57969;SDS011;43777;42.656;23.264;2022-11-20T02:44:03;2.38;;;1.40;;
57969;SDS011;43777;42.656;23.264;2022-11-20T02:46:30;3.05;;;1.33;;
57969;SDS011;43777;42.656;23.264;2022-11-20T02:48:56;3.50;;;1.60;;
57969;SDS011;43777;42.656;23.264;2022-11-20T02:51:23;4.20;;;1.70;;
57969;SDS011;43777;42.656;23.264;2022-11-20T02:53:49;5.25;;;1.40;;
57969;SDS011;43777;42.656;23.264;2022-11-20T02:56:15;2.10;;;1.40;;
57969;SDS011;43777;42.656;23.264;2022-11-20T02:58:41;3.60;;;1.50;;
57969;SDS011;43777;42.656;23.264;2022-11-20T03:01:07;6.40;;;1.98;;
57969;SDS011;43777;42.656;23.264;2022-11-20T03:03:33;4.82;;;1.70;;
57969;SDS011;43777;42.656;23.264;2022-11-20T03:05:59;6.60;;;1.80;;
57969;SDS011;43777;42.656;23.264;2022-11-20T03:08:25;3.47;;;1.40;;
57969;SDS011;43777;42.656;23.264;2022-11-20T03:10:51;6.25;;;2.00;;
57969;SDS011;43777;42.656;23.264;2022-11-20T03:13:18;3.63;;;1.88;;
57969;SDS011;43777;42.656;23.264;2022-11-20T03:15:44;4.60;;;1.58;;
57969;SDS011;43777;42.656;23.264;2022-11-20T03:18:10;6.03;;;1.67;;
57969;SDS011;43777;42.656;23.264;2022-11-20T03:20:36;6.20;;;1.30;;
57969;SDS011;43777;42.656;23.264;2022-11-20T03:23:02;4.10;;;1.70;;
57969;SDS011;43777;42.656;23.264;2022-11-20T03:25:28;7.20;;;1.50;;
57969;SDS011;43777;42.656;23.264;2022-11-20T03:27:54;4.00;;;1.83;;
57969;SDS011;43777;42.656;23.264;2022-11-20T03:30:20;3.33;;;1.48;;
57969;SDS011;43777;42.656;23.264;2022-11-20T03:32:46;2.40;;;1.40;;
57969;SDS011;43777;42.656;23.264;2022-11-20T03:35:12;5.35;;;1.70;;
57969;SDS011;43777;42.656;23.264;2022-11-20T03:37:38;5.38;;;1.92;;
57969;SDS011;43777;42.656;23.264;2022-11-20T03:40:05;3.05;;;1.20;;
57969;SDS011;43777;42.656;23.264;2022-11-20T03:42:31;3.72;;;1.33;;
57969;SDS011;43777;42.656;23.264;2022-11-20T03:45:13;4.45;;;1.50;;
57969;SDS011;43777;42.656;23.264;2022-11-20T03:47:39;3.67;;;1.40;;
57969;SDS011;43777;42.656;23.264;2022-11-20T03:50:05;4.32;;;1.25;;
57969;SDS011;43777;42.656;23.264;2022-11-20T03:52:31;2.42;;;1.20;;
57969;SDS011;43777;42.656;23.264;2022-11-20T03:54:57;4.10;;;1.58;;
57969;SDS011;43777;42.656;23.264;2022-11-20T03:57:23;2.30;;;1.30;;
57969;SDS011;43777;42.656;23.264;2022-11-20T03:59:49;4.30;;;1.58;;
57969;SDS011;43777;42.656;23.264;2022-11-20T04:02:15;2.35;;;1.33;;
57969;SDS011;43777;42.656;23.264;2022-11-20T04:04:41;5.07;;;1.40;;
57969;SDS011;43777;42.656;23.264;2022-11-20T04:07:07;4.38;;;1.25;;
57969;SDS011;43777;42.656;23.264;2022-11-20T04:09:33;6.93;;;1.30;;
57969;SDS011;43777;42.656;23.264;2022-11-20T04:11:59;3.72;;;1.27;;
57969;SDS011;43777;42.656;23.264;2022-11-20T04:14:25;2.85;;;1.40;;
57969;SDS011;43777;42.656;23.264;2022-11-20T04:16:51;5.57;;;1.40;;
57969;SDS011;43777;42.656;23.264;2022-11-20T04:19:17;3.15;;;1.33;;
57969;SDS011;43777;42.656;23.264;2022-11-20T04:21:44;4.30;;;1.20;;
57969;SDS011;43777;42.656;23.264;2022-11-20T04:24:10;4.38;;;1.38;;
57969;SDS011;43777;42.656;23.264;2022-11-20T04:26:36;3.17;;;1.17;;
57969;SDS011;43777;42.656;23.264;2022-11-20T04:29:02;2.53;;;1.38;;
57969;SDS011;43777;42.656;23.264;2022-11-20T04:31:29;5.38;;;1.40;;
57969;SDS011;43777;42.656;23.264;2022-11-20T04:33:58;3.17;;;1.40;;
57969;SDS011;43777;42.656;23.264;2022-11-20T04:36:25;4.38;;;1.38;;
57969;SDS011;43777;42.656;23.264;2022-11-20T04:38:52;2.47;;;1.33;;
57969;SDS011;43777;42.656;23.264;2022-11-20T04:41:19;3.97;;;1.20;;
57969;SDS011;43777;42.656;23.264;2022-11-20T04:43:46;3.42;;;1.35;;
57969;SDS011;43777;42.656;23.264;2022-11-20T04:46:13;4.53;;;1.67;;
57969;SDS011;43777;42.656;23.264;2022-11-20T04:48:39;2.22;;;1.20;;
57969;SDS011;43777;42.656;23.264;2022-11-20T04:51:05;2.78;;;1.33;;
57969;SDS011;43777;42.656;23.264;2022-11-20T04:53:31;2.72;;;1.23;;
57969;SDS011;43777;42.656;23.264;2022-11-20T04:56:01;2.85;;;1.10;;
57969;SDS011;43777;42.656;23.264;2022-11-20T04:58:28;2.45;;;1.20;;
57969;SDS011;43777;42.656;23.264;2022-11-20T05:01:00;6.30;;;1.70;;
57969;SDS011;43777;42.656;23.264;2022-11-20T05:03:26;1.50;;;1.25;;
57969;SDS011;43777;42.656;23.264;2022-11-20T05:05:52;3.85;;;1.10;;
57969;SDS011;43777;42.656;23.264;2022-11-20T05:08:18;5.35;;;2.10;;
57969;SDS011;43777;42.656;23.264;2022-11-20T05:10:44;2.53;;;0.90;;
57969;SDS011;43777;42.656;23.264;2022-11-20T05:13:10;4.55;;;1.08;;
57969;SDS011;43777;42.656;23.264;2022-11-20T05:15:36;3.10;;;1.20;;
57969;SDS011;43777;42.656;23.264;2022-11-20T05:18:02;2.08;;;1.00;;
57969;SDS011;43777;42.656;23.264;2022-11-20T05:20:28;3.33;;;1.13;;
57969;SDS011;43777;42.656;23.264;2022-11-20T05:22:58;2.17;;;1.30;;
57969;SDS011;43777;42.656;23.264;2022-11-20T05:25:24;1.92;;;1.13;;
57969;SDS011;43777;42.656;23.264;2022-11-20T05:27:50;5.35;;;0.90;;
57969;SDS011;43777;42.656;23.264;2022-11-20T05:30:16;2.75;;;0.93;;
57969;SDS011;43777;42.656;23.264;2022-11-20T05:32:42;1.40;;;0.93;;
57969;SDS011;43777;42.656;23.264;2022-11-20T05:35:08;3.00;;;1.23;;
57969;SDS011;43777;42.656;23.264;2022-11-20T05:37:34;3.58;;;0.82;;
57969;SDS011;43777;42.656;23.264;2022-11-20T05:40:00;4.53;;;1.10;;
57969;SDS011;43777;42.656;23.264;2022-11-20T05:42:29;2.20;;;1.33;;
57969;SDS011;43777;42.656;23.264;2022-11-20T05:44:58;4.18;;;1.30;;
57969;SDS011;43777;42.656;23.264;2022-11-20T05:47:25;2.60;;;1.20;;
57969;SDS011;43777;42.656;23.264;2022-11-20T05:49:51;4.45;;;1.35;;
57969;SDS011;43777;42.656;23.264;2022-11-20T05:52:17;2.20;;;1.17;;
57969;SDS011;43777;42.656;23.264;2022-11-20T05:54:43;2.55;;;1.10;;
57969;SDS011;43777;42.656;23.264;2022-11-20T05:57:09;3.00;;;1.80;;
57969;SDS011;43777;42.656;23.264;2022-11-20T05:59:35;3.70;;;1.63;;
57969;SDS011;43777;42.656;23.264;2022-11-20T06:02:01;1.77;;;1.40;;
57969;SDS011;43777;42.656;23.264;2022-11-20T06:04:27;2.88;;;1.10;;
57969;SDS011;43777;42.656;23.264;2022-11-20T06:06:53;2.75;;;0.90;;
57969;SDS011;43777;42.656;23.264;2022-11-20T06:09:19;3.42;;;1.20;;
57969;SDS011;43777;42.656;23.264;2022-11-20T06:11:45;3.88;;;1.40;;
57969;SDS011;43777;42.656;23.264;2022-11-20T06:14:11;4.72;;;1.48;;
57969;SDS011;43777;42.656;23.264;2022-11-20T06:16:37;6.57;;;1.42;;
57969;SDS011;43777;42.656;23.264;2022-11-20T06:19:03;3.70;;;1.23;;
57969;SDS011;43777;42.656;23.264;2022-11-20T06:21:29;7.22;;;1.30;;
57969;SDS011;43777;42.656;23.264;2022-11-20T06:23:56;4.07;;;1.25;;
57969;SDS011;43777;42.656;23.264;2022-11-20T06:26:23;4.20;;;1.10;;
57969;SDS011;43777;42.656;23.264;2022-11-20T06:28:49;4.43;;;1.20;;
57969;SDS011;43777;42.656;23.264;2022-11-20T06:31:17;3.03;;;1.33;;
57969;SDS011;43777;42.656;23.264;2022-11-20T06:33:43;2.75;;;1.17;;
57969;SDS011;43777;42.656;23.264;2022-11-20T06:36:10;3.90;;;1.40;;
57969;SDS011;43777;42.656;23.264;2022-11-20T06:38:36;3.72;;;1.23;;
57969;SDS011;43777;42.656;23.264;2022-11-20T06:41:03;2.78;;;0.95;;
57969;SDS011;43777;42.656;23.264;2022-11-20T06:43:29;3.78;;;1.40;;
57969;SDS011;43777;42.656;23.264;2022-11-20T06:45:56;2.97;;;1.38;;
57969;SDS011;43777;42.656;23.264;2022-11-20T06:48:23;2.25;;;1.00;;
57969;SDS011;43777;42.656;23.264;2022-11-20T06:50:49;4.43;;;1.10;;
57969;SDS011;43777;42.656;23.264;2022-11-20T06:53:15;2.13;;;1.00;;
57969;SDS011;43777;42.656;23.264;2022-11-20T06:55:42;2.92;;;1.13;;
57969;SDS011;43777;42.656;23.264;2022-11-20T06:58:08;1.58;;;0.63;;
57969;SDS011;43777;42.656;23.264;2022-11-20T07:00:35;2.58;;;1.30;;
57969;SDS011;43777;42.656;23.264;2022-11-20T07:03:04;4.03;;;1.30;;
57969;SDS011;43777;42.656;23.264;2022-11-20T07:05:30;2.25;;;1.10;;
57969;SDS011;43777;42.656;23.264;2022-11-20T07:07:57;1.23;;;0.90;;
57969;SDS011;43777;42.656;23.264;2022-11-20T07:10:23;2.38;;;1.08;;
57969;SDS011;43777;42.656;23.264;2022-11-20T07:12:50;6.35;;;3.03;;
57969;SDS011;43777;42.656;23.264;2022-11-20T07:15:16;7.15;;;2.00;;
57969;SDS011;43777;42.656;23.264;2022-11-20T07:17:42;5.57;;;1.70;;
57969;SDS011;43777;42.656;23.264;2022-11-20T07:20:09;3.40;;;1.35;;
57969;SDS011;43777;42.656;23.264;2022-11-20T07:22:35;3.10;;;1.30;;
57969;SDS011;43777;42.656;23.264;2022-11-20T07:25:01;6.60;;;1.75;;
57969;SDS011;43777;42.656;23.264;2022-11-20T07:27:27;4.63;;;1.67;;
57969;SDS011;43777;42.656;23.264;2022-11-20T07:29:54;3.22;;;1.48;;
57969;SDS011;43777;42.656;23.264;2022-11-20T07:32:20;6.28;;;1.10;;
57969;SDS011;43777;42.656;23.264;2022-11-20T07:34:46;1.85;;;1.40;;
57969;SDS011;43777;42.656;23.264;2022-11-20T07:37:12;5.53;;;1.20;;
57969;SDS011;43777;42.656;23.264;2022-11-20T07:39:39;6.63;;;1.40;;
57969;SDS011;43777;42.656;23.264;2022-11-20T07:42:08;8.57;;;1.30;;
57969;SDS011;43777;42.656;23.264;2022-11-20T07:44:34;4.97;;;1.65;;
57969;SDS011;43777;42.656;23.264;2022-11-20T07:47:00;4.15;;;1.50;;
57969;SDS011;43777;42.656;23.264;2022-11-20T07:49:27;7.45;;;1.70;;
57969;SDS011;43777;42.656;23.264;2022-11-20T07:51:53;3.72;;;1.20;;
57969;SDS011;43777;42.656;23.264;2022-11-20T07:54:19;5.07;;;1.33;;
57969;SDS011;43777;42.656;23.264;2022-11-20T07:56:46;7.43;;;1.67;;
57969;SDS011;43777;42.656;23.264;2022-11-20T07:59:12;6.95;;;2.15;;
57969;SDS011;43777;42.656;23.264;2022-11-20T08:01:38;7.57;;;1.65;;
57969;SDS011;43777;42.656;23.264;2022-11-20T08:04:04;5.60;;;1.45;;
57969;SDS011;43777;42.656;23.264;2022-11-20T08:06:31;6.20;;;1.48;;
57969;SDS011;43777;42.656;23.264;2022-11-20T08:08:57;8.80;;;1.55;;
57969;SDS011;43777;42.656;23.264;2022-11-20T08:11:23;5.43;;;1.52;;
57969;SDS011;43777;42.656;23.264;2022-11-20T08:14:07;7.95;;;1.63;;
57969;SDS011;43777;42.656;23.264;2022-11-20T08:16:36;7.20;;;1.58;;
57969;SDS011;43777;42.656;23.264;2022-11-20T08:19:02;7.40;;;1.40;;
57969;SDS011;43777;42.656;23.264;2022-11-20T08:21:29;3.50;;;1.30;;
57969;SDS011;43777;42.656;23.264;2022-11-20T08:23:56;7.63;;;1.70;;
57969;SDS011;43777;42.656;23.264;2022-11-20T08:26:22;7.07;;;2.05;;
57969;SDS011;43777;42.656;23.264;2022-11-20T08:28:49;8.02;;;1.90;;
57969;SDS011;43777;42.656;23.264;2022-11-20T08:31:15;4.35;;;1.52;;
57969;SDS011;43777;42.656;23.264;2022-11-20T08:33:41;14.68;;;6.03;;
57969;SDS011;43777;42.656;23.264;2022-11-20T08:36:07;7.70;;;2.05;;
57969;SDS011;43777;42.656;23.264;2022-11-20T08:38:33;7.93;;;2.13;;
57969;SDS011;43777;42.656;23.264;2022-11-20T08:41:00;7.45;;;2.15;;
57969;SDS011;43777;42.656;23.264;2022-11-20T08:43:45;6.45;;;1.60;;
57969;SDS011;43777;42.656;23.264;2022-11-20T08:46:11;6.78;;;1.65;;
57969;SDS011;43777;42.656;23.264;2022-11-20T08:48:37;7.72;;;2.85;;
57969;SDS011;43777;42.656;23.264;2022-11-20T08:51:03;5.05;;;2.30;;
57969;SDS011;43777;42.656;23.264;2022-11-20T08:53:29;6.13;;;2.70;;
57969;SDS011;43777;42.656;23.264;2022-11-20T08:55:58;9.55;;;3.05;;
57969;SDS011;43777;42.656;23.264;2022-11-20T08:58:25;11.40;;;3.78;;
57969;SDS011;43777;42.656;23.264;2022-11-20T09:00:51;6.00;;;3.80;;
57969;SDS011;43777;42.656;23.264;2022-11-20T09:03:17;10.23;;;3.70;;
57969;SDS011;43777;42.656;23.264;2022-11-20T09:05:44;6.68;;;3.15;;
57969;SDS011;43777;42.656;23.264;2022-11-20T09:08:10;7.32;;;3.25;;
57969;SDS011;43777;42.656;23.264;2022-11-20T09:10:36;7.10;;;3.40;;
57969;SDS011;43777;42.656;23.264;2022-11-20T09:13:04;8.80;;;3.50;;
57969;SDS011;43777;42.656;23.264;2022-11-20T09:15:30;7.07;;;2.70;;
57969;SDS011;43777;42.656;23.264;2022-11-20T09:17:58;6.30;;;2.97;;
57969;SDS011;43777;42.656;23.264;2022-11-20T09:20:24;4.63;;;2.00;;
57969;SDS011;43777;42.656;23.264;2022-11-20T09:22:51;3.72;;;1.92;;
57969;SDS011;43777;42.656;23.264;2022-11-20T09:25:17;2.80;;;1.25;;
57969;SDS011;43777;42.656;23.264;2022-11-20T09:27:43;4.90;;;1.60;;
57969;SDS011;43777;42.656;23.264;2022-11-20T09:30:11;1.42;;;1.00;;
57969;SDS011;43777;42.656;23.264;2022-11-20T09:32:41;6.70;;;2.63;;
57969;SDS011;43777;42.656;23.264;2022-11-20T09:35:07;5.65;;;1.90;;
57969;SDS011;43777;42.656;23.264;2022-11-20T09:37:34;3.05;;;1.55;;
57969;SDS011;43777;42.656;23.264;2022-11-20T09:40:00;4.70;;;1.60;;
57969;SDS011;43777;42.656;23.264;2022-11-20T09:47:28;4.30;;;1.70;;
57969;SDS011;43777;42.656;23.264;2022-11-20T09:52:37;8.35;;;2.38;;
57969;SDS011;43777;42.656;23.264;2022-11-20T09:55:08;6.00;;;2.35;;
57969;SDS011;43777;42.656;23.264;2022-11-20T09:57:36;7.13;;;2.72;;
57969;SDS011;43777;42.656;23.264;2022-11-20T10:00:04;7.20;;;2.78;;
57969;SDS011;43777;42.656;23.264;2022-11-20T10:05:09;10.20;;;3.10;;
57969;SDS011;43777;42.656;23.264;2022-11-20T10:10:04;6.78;;;2.70;;
57969;SDS011;43777;42.656;23.264;2022-11-20T10:23:45;9.90;;;4.15;;
57969;SDS011;43777;42.656;23.264;2022-11-20T10:27:00;6.60;;;3.53;;
57969;SDS011;43777;42.656;23.264;2022-11-20T10:29:13;7.68;;;4.00;;
57969;SDS011;43777;42.656;23.264;2022-11-20T10:31:44;16.50;;;3.90;;
57969;SDS011;43777;42.656;23.264;2022-11-20T10:36:47;8.98;;;3.90;;
57969;SDS011;43777;42.656;23.264;2022-11-20T10:39:35;12.13;;;5.07;;
57969;SDS011;43777;42.656;23.264;2022-11-20T10:42:03;10.68;;;5.03;;
57969;SDS011;43777;42.656;23.264;2022-11-20T10:44:34;13.63;;;5.47;;
57969;SDS011;43777;42.656;23.264;2022-11-20T10:47:20;12.82;;;5.03;;
57969;SDS011;43777;42.656;23.264;2022-11-20T10:49:48;17.70;;;6.85;;
57969;SDS011;43777;42.656;23.264;2022-11-20T11:00:26;19.65;;;9.32;;
57969;SDS011;43777;42.656;23.264;2022-11-20T11:02:53;13.25;;;6.35;;
57969;SDS011;43777;42.656;23.264;2022-11-20T11:07:50;7.90;;;3.03;;
57969;SDS011;43777;42.656;23.264;2022-11-20T11:10:31;4.25;;;2.58;;
57969;SDS011;43777;42.656;23.264;2022-11-20T11:12:58;6.32;;;2.47;;
57969;SDS011;43777;42.656;23.264;2022-11-20T11:15:29;2.95;;;1.42;;
57969;SDS011;43777;42.656;23.264;2022-11-20T11:17:55;4.95;;;2.13;;
57969;SDS011;43777;42.656;23.264;2022-11-20T11:20:22;5.55;;;2.20;;
57969;SDS011;43777;42.656;23.264;2022-11-20T11:22:53;5.53;;;1.55;;
57969;SDS011;43777;42.656;23.264;2022-11-20T11:27:52;1.75;;;0.60;;
57969;SDS011;43777;42.656;23.264;2022-11-20T11:30:21;1.77;;;0.73;;
57969;SDS011;43777;42.656;23.264;2022-11-20T11:32:47;3.70;;;0.82;;
57969;SDS011;43777;42.656;23.264;2022-11-20T11:35:48;5.43;;;0.88;;
57969;SDS011;43777;42.656;23.264;2022-11-20T11:38:07;4.03;;;0.70;;
57969;SDS011;43777;42.656;23.264;2022-11-20T11:40:37;3.65;;;0.77;;
57969;SDS011;43777;42.656;23.264;2022-11-20T11:43:05;2.20;;;1.13;;
57969;SDS011;43777;42.656;23.264;2022-11-20T11:45:54;3.80;;;0.57;;
57969;SDS011;43777;42.656;23.264;2022-11-20T11:48:21;3.28;;;0.82;;
57969;SDS011;43777;42.656;23.264;2022-11-20T11:50:48;4.05;;;0.93;;
57969;SDS011;43777;42.656;23.264;2022-11-20T11:53:15;3.72;;;1.17;;
57969;SDS011;43777;42.656;23.264;2022-11-20T11:55:43;5.63;;;1.23;;
57969;SDS011;43777;42.656;23.264;2022-11-20T12:00:41;5.13;;;1.00;;
57969;SDS011;43777;42.656;23.264;2022-11-20T12:06:15;3.63;;;0.90;;
57969;SDS011;43777;42.656;23.264;2022-11-20T12:08:44;5.45;;;1.38;;
57969;SDS011;43777;42.656;23.264;2022-11-20T12:11:16;3.47;;;0.80;;
57969;SDS011;43777;42.656;23.264;2022-11-20T12:13:57;2.38;;;0.60;;
57969;SDS011;43777;42.656;23.264;2022-11-20T12:16:26;1.38;;;0.52;;
57969;SDS011;43777;42.656;23.264;2022-11-20T12:18:53;1.90;;;1.00;;
57969;SDS011;43777;42.656;23.264;2022-11-20T12:23:52;1.60;;;0.70;;
57969;SDS011;43777;42.656;23.264;2022-11-20T12:39:11;6.05;;;0.98;;
57969;SDS011;43777;42.656;23.264;2022-11-20T12:41:51;2.65;;;1.33;;
57969;SDS011;43777;42.656;23.264;2022-11-20T12:44:44;4.40;;;1.27;;
57969;SDS011;43777;42.656;23.264;2022-11-20T13:00:19;3.00;;;1.05;;
57969;SDS011;43777;42.656;23.264;2022-11-20T13:06:15;4.45;;;1.45;;
57969;SDS011;43777;42.656;23.264;2022-11-20T13:08:25;4.57;;;2.13;;
57969;SDS011;43777;42.656;23.264;2022-11-20T13:13:43;9.05;;;3.47;;
57969;SDS011;43777;42.656;23.264;2022-11-20T13:18:42;7.10;;;4.22;;
57969;SDS011;43777;42.656;23.264;2022-11-20T13:21:23;8.13;;;3.30;;
57969;SDS011;43777;42.656;23.264;2022-11-20T13:24:06;5.55;;;2.75;;
57969;SDS011;43777;42.656;23.264;2022-11-20T13:26:33;8.05;;;4.82;;
57969;SDS011;43777;42.656;23.264;2022-11-20T13:29:05;8.85;;;5.38;;
57969;SDS011;43777;42.656;23.264;2022-11-20T13:31:35;8.50;;;5.03;;
57969;SDS011;43777;42.656;23.264;2022-11-20T13:34:02;21.02;;;10.88;;
57969;SDS011;43777;42.656;23.264;2022-11-20T13:36:29;28.85;;;17.73;;
57969;SDS011;43777;42.656;23.264;2022-11-20T13:38:57;23.27;;;16.08;;
57969;SDS011;43777;42.656;23.264;2022-11-20T13:41:25;25.50;;;14.65;;
57969;SDS011;43777;42.656;23.264;2022-11-20T13:44:23;20.40;;;11.70;;
57969;SDS011;43777;42.656;23.264;2022-11-20T13:46:45;27.65;;;20.58;;
57969;SDS011;43777;42.656;23.264;2022-11-20T13:51:47;28.90;;;19.80;;
57969;SDS011;43777;42.656;23.264;2022-11-20T13:59:58;8.68;;;5.93;;
57969;SDS011;43777;42.656;23.264;2022-11-20T14:02:27;14.15;;;5.07;;
57969;SDS011;43777;42.656;23.264;2022-11-20T14:04:54;5.93;;;3.85;;
57969;SDS011;43777;42.656;23.264;2022-11-20T14:07:24;9.77;;;4.03;;
57969;SDS011;43777;42.656;23.264;2022-11-20T14:09:52;8.98;;;5.00;;
57969;SDS011;43777;42.656;23.264;2022-11-20T14:12:20;7.75;;;3.88;;
57969;SDS011;43777;42.656;23.264;2022-11-20T14:14:48;9.75;;;4.75;;
57969;SDS011;43777;42.656;23.264;2022-11-20T14:17:22;6.32;;;4.40;;
57969;SDS011;43777;42.656;23.264;2022-11-20T14:19:50;12.90;;;5.13;;
57969;SDS011;43777;42.656;23.264;2022-11-20T14:22:20;7.88;;;5.03;;
57969;SDS011;43777;42.656;23.264;2022-11-20T14:24:48;12.07;;;7.93;;
57969;SDS011;43777;42.656;23.264;2022-11-20T14:27:15;10.20;;;7.18;;
57969;SDS011;43777;42.656;23.264;2022-11-20T14:29:42;11.65;;;7.60;;
57969;SDS011;43777;42.656;23.264;2022-11-20T14:32:09;8.93;;;5.32;;
57969;SDS011;43777;42.656;23.264;2022-11-20T14:34:37;6.72;;;4.60;;
57969;SDS011;43777;42.656;23.264;2022-11-20T14:37:04;10.52;;;5.90;;
57969;SDS011;43777;42.656;23.264;2022-11-20T14:39:32;7.10;;;4.05;;
57969;SDS011;43777;42.656;23.264;2022-11-20T14:41:59;9.05;;;3.40;;
57969;SDS011;43777;42.656;23.264;2022-11-20T14:44:26;4.43;;;3.78;;
57969;SDS011;43777;42.656;23.264;2022-11-20T14:46:53;7.00;;;4.60;;
57969;SDS011;43777;42.656;23.264;2022-11-20T14:49:20;5.63;;;3.95;;
57969;SDS011;43777;42.656;23.264;2022-11-20T14:51:46;5.55;;;2.75;;
57969;SDS011;43777;42.656;23.264;2022-11-20T14:54:23;6.57;;;2.47;;
57969;SDS011;43777;42.656;23.264;2022-11-20T14:56:58;6.95;;;3.40;;
57969;SDS011;43777;42.656;23.264;2022-11-20T14:59:29;4.45;;;2.70;;
57969;SDS011;43777;42.656;23.264;2022-11-20T15:01:56;3.65;;;2.38;;
57969;SDS011;43777;42.656;23.264;2022-11-20T15:04:23;3.33;;;1.95;;
57969;SDS011;43777;42.656;23.264;2022-11-20T15:06:50;7.78;;;3.60;;
57969;SDS011;43777;42.656;23.264;2022-11-20T15:09:17;5.82;;;4.05;;
57969;SDS011;43777;42.656;23.264;2022-11-20T15:11:52;11.10;;;6.28;;
57969;SDS011;43777;42.656;23.264;2022-11-20T15:14:18;12.85;;;9.88;;
57969;SDS011;43777;42.656;23.264;2022-11-20T15:16:44;9.57;;;5.95;;
57969;SDS011;43777;42.656;23.264;2022-11-20T15:19:13;5.82;;;3.13;;
57969;SDS011;43777;42.656;23.264;2022-11-20T15:21:42;4.78;;;2.85;;
57969;SDS011;43777;42.656;23.264;2022-11-20T15:24:08;6.40;;;2.72;;
57969;SDS011;43777;42.656;23.264;2022-11-20T15:26:34;3.40;;;2.30;;
57969;SDS011;43777;42.656;23.264;2022-11-20T15:29:01;5.15;;;2.90;;
57969;SDS011;43777;42.656;23.264;2022-11-20T15:31:27;4.93;;;3.20;;
57969;SDS011;43777;42.656;23.264;2022-11-20T15:33:53;7.65;;;5.22;;
57969;SDS011;43777;42.656;23.264;2022-11-20T15:36:19;3.78;;;2.08;;
57969;SDS011;43777;42.656;23.264;2022-11-20T15:38:45;4.15;;;2.97;;
57969;SDS011;43777;42.656;23.264;2022-11-20T15:41:12;4.45;;;2.33;;
57969;SDS011;43777;42.656;23.264;2022-11-20T15:43:38;6.28;;;2.80;;
57969;SDS011;43777;42.656;23.264;2022-11-20T15:46:05;5.35;;;2.85;;
57969;SDS011;43777;42.656;23.264;2022-11-20T15:48:34;7.20;;;2.75;;
57969;SDS011;43777;42.656;23.264;2022-11-20T15:51:05;6.05;;;2.00;;
57969;SDS011;43777;42.656;23.264;2022-11-20T15:53:32;5.32;;;2.40;;
57969;SDS011;43777;42.656;23.264;2022-11-20T15:55:58;7.78;;;3.50;;
57969;SDS011;43777;42.656;23.264;2022-11-20T15:58:24;3.97;;;2.67;;
57969;SDS011;43777;42.656;23.264;2022-11-20T16:00:51;11.20;;;8.90;;
57969;SDS011;43777;42.656;23.264;2022-11-20T16:03:17;10.35;;;6.40;;
57969;SDS011;43777;42.656;23.264;2022-11-20T16:05:44;9.55;;;5.35;;
57969;SDS011;43777;42.656;23.264;2022-11-20T16:08:10;3.40;;;2.30;;